KMER/MER METAR and TAF weather

Enter ICAO airport designator
Station Type Date Time Source
KMER METAR 2021/04/14 20:45 UTC NOAA

KMER 142045Z 25005KT 10SM SKC 23/04 A2994


Station Type Date Time Source
KMER Decoded METAR 2021/04/14 20:45 UTC NOAA

Merced / Castle Air Force Base, CA, United States (KMER) 37-22N 120-34W 60M
Apr 14, 2021 - 04:45 PM EDT / 2021.04.14 2045 UTC
Wind: from the WSW (250 degrees) at 6 MPH (5 KT):0
Visibility: 10 mile(s):0
Sky conditions: clear
Temperature: 73 F (23 C)
Dew Point: 39 F (4 C)
Relative Humidity: 28%
Pressure (altimeter): 29.94 in. Hg (1013 hPa)
ob: KMER 142045Z 25005KT 10SM SKC 23/04 A2994
cycle: 21

Station Type Date Time Source
KMER TAF 2021/04/14 20:31 UTC NOAA

TAF
AMD KMER 142020Z 1420/1518 VRB06KT P6SM FEW120
FM150300 VRB05KT P6SM SKC

Example: see airport list